sensor_id;sensor_type;location;lat;lon;timestamp;temperature;humidity
12872;DHT22;6504;53.766;9.626;2023-08-20T00:00:38;20.10;99.90
12872;DHT22;6504;53.766;9.626;2023-08-20T00:03:11;20.10;99.90
12872;DHT22;6504;53.766;9.626;2023-08-20T00:05:41;20.00;99.90
12872;DHT22;6504;53.766;9.626;2023-08-20T00:08:10;20.00;99.90
12872;DHT22;6504;53.766;9.626;2023-08-20T00:10:38;20.00;99.90
12872;DHT22;6504;53.766;9.626;2023-08-20T00:13:06;20.00;99.90
12872;DHT22;6504;53.766;9.626;2023-08-20T00:15:35;19.90;99.90
12872;DHT22;6504;53.766;9.626;2023-08-20T00:18:03;19.80;99.90
12872;DHT22;6504;53.766;9.626;2023-08-20T00:20:32;19.80;99.90
12872;DHT22;6504;53.766;9.626;2023-08-20T00:23:01;19.70;99.90
12872;DHT22;6504;53.766;9.626;2023-08-20T00:25:31;19.70;99.90
12872;DHT22;6504;53.766;9.626;2023-08-20T00:27:59;19.60;99.90
12872;DHT22;6504;53.766;9.626;2023-08-20T00:30:28;19.60;99.90
12872;DHT22;6504;53.766;9.626;2023-08-20T00:32:56;19.60;99.90
12872;DHT22;6504;53.766;9.626;2023-08-20T00:35:24;19.50;99.90
12872;DHT22;6504;53.766;9.626;2023-08-20T00:37:52;19.50;99.90
12872;DHT22;6504;53.766;9.626;2023-08-20T00:40:20;19.50;99.90
12872;DHT22;6504;53.766;9.626;2023-08-20T00:42:50;19.40;99.90
12872;DHT22;6504;53.766;9.626;2023-08-20T00:45:18;19.40;99.90
12872;DHT22;6504;53.766;9.626;2023-08-20T00:47:47;19.40;99.90
12872;DHT22;6504;53.766;9.626;2023-08-20T00:50:16;19.30;99.90
12872;DHT22;6504;53.766;9.626;2023-08-20T00:52:45;19.30;99.90
12872;DHT22;6504;53.766;9.626;2023-08-20T00:55:13;19.30;99.90
12872;DHT22;6504;53.766;9.626;2023-08-20T00:57:42;19.30;99.90
12872;DHT22;6504;53.766;9.626;2023-08-20T01:00:12;19.30;99.90
12872;DHT22;6504;53.766;9.626;2023-08-20T01:02:40;19.30;99.90
12872;DHT22;6504;53.766;9.626;2023-08-20T01:05:12;19.30;99.90
12872;DHT22;6504;53.766;9.626;2023-08-20T01:08:02;19.30;99.90
12872;DHT22;6504;53.766;9.626;2023-08-20T01:10:40;19.30;99.90
12872;DHT22;6504;53.766;9.626;2023-08-20T01:13:10;19.20;99.90
12872;DHT22;6504;53.766;9.626;2023-08-20T01:15:40;19.20;99.90
12872;DHT22;6504;53.766;9.626;2023-08-20T01:18:08;19.20;99.90
12872;DHT22;6504;53.766;9.626;2023-08-20T01:20:41;19.20;99.90
12872;DHT22;6504;53.766;9.626;2023-08-20T01:23:40;19.10;99.90
12872;DHT22;6504;53.766;9.626;2023-08-20T01:26:31;19.10;99.90
12872;DHT22;6504;53.766;9.626;2023-08-20T01:29:02;19.10;99.90
12872;DHT22;6504;53.766;9.626;2023-08-20T01:31:31;19.00;99.90
12872;DHT22;6504;53.766;9.626;2023-08-20T01:34:01;19.00;99.90
12872;DHT22;6504;53.766;9.626;2023-08-20T01:36:29;19.00;99.90
12872;DHT22;6504;53.766;9.626;2023-08-20T01:38:57;19.00;99.90
12872;DHT22;6504;53.766;9.626;2023-08-20T01:41:25;19.00;99.90
12872;DHT22;6504;53.766;9.626;2023-08-20T01:43:53;19.00;99.90
12872;DHT22;6504;53.766;9.626;2023-08-20T01:46:23;19.00;99.90
12872;DHT22;6504;53.766;9.626;2023-08-20T01:48:51;18.90;99.90
12872;DHT22;6504;53.766;9.626;2023-08-20T01:51:19;18.90;99.90
12872;DHT22;6504;53.766;9.626;2023-08-20T01:53:47;18.90;99.90
12872;DHT22;6504;53.766;9.626;2023-08-20T01:56:15;18.90;99.90
12872;DHT22;6504;53.766;9.626;2023-08-20T01:58:43;18.90;99.90
12872;DHT22;6504;53.766;9.626;2023-08-20T02:01:12;18.80;99.90
12872;DHT22;6504;53.766;9.626;2023-08-20T02:03:41;18.80;99.90
12872;DHT22;6504;53.766;9.626;2023-08-20T02:06:09;18.80;99.90
12872;DHT22;6504;53.766;9.626;2023-08-20T02:08:37;18.80;99.90
12872;DHT22;6504;53.766;9.626;2023-08-20T02:11:06;18.80;99.90
12872;DHT22;6504;53.766;9.626;2023-08-20T02:13:34;18.70;99.90
12872;DHT22;6504;53.766;9.626;2023-08-20T02:16:03;18.70;99.90
12872;DHT22;6504;53.766;9.626;2023-08-20T02:18:31;18.70;99.90
12872;DHT22;6504;53.766;9.626;2023-08-20T02:21:01;18.60;99.90
12872;DHT22;6504;53.766;9.626;2023-08-20T02:23:29;18.60;99.90
12872;DHT22;6504;53.766;9.626;2023-08-20T02:25:57;18.60;99.90
12872;DHT22;6504;53.766;9.626;2023-08-20T02:28:25;18.60;99.90
12872;DHT22;6504;53.766;9.626;2023-08-20T02:30:53;18.50;99.90
12872;DHT22;6504;53.766;9.626;2023-08-20T02:33:22;18.50;99.90
12872;DHT22;6504;53.766;9.626;2023-08-20T02:35:50;18.50;99.90
12872;DHT22;6504;53.766;9.626;2023-08-20T02:38:19;18.40;99.90
12872;DHT22;6504;53.766;9.626;2023-08-20T02:40:47;18.40;99.90
12872;DHT22;6504;53.766;9.626;2023-08-20T02:43:15;18.40;99.90
12872;DHT22;6504;53.766;9.626;2023-08-20T02:45:43;18.30;99.90
12872;DHT22;6504;53.766;9.626;2023-08-20T02:48:13;18.30;99.90
12872;DHT22;6504;53.766;9.626;2023-08-20T02:50:41;18.30;99.90
12872;DHT22;6504;53.766;9.626;2023-08-20T02:53:09;18.30;99.90
12872;DHT22;6504;53.766;9.626;2023-08-20T02:55:39;18.30;99.90
12872;DHT22;6504;53.766;9.626;2023-08-20T02:58:07;18.30;99.90
12872;DHT22;6504;53.766;9.626;2023-08-20T03:00:36;18.20;99.90
12872;DHT22;6504;53.766;9.626;2023-08-20T03:03:04;18.20;99.90
12872;DHT22;6504;53.766;9.626;2023-08-20T03:05:35;18.20;99.90
12872;DHT22;6504;53.766;9.626;2023-08-20T03:08:04;18.10;99.90
12872;DHT22;6504;53.766;9.626;2023-08-20T03:10:33;18.10;99.90
12872;DHT22;6504;53.766;9.626;2023-08-20T03:13:03;18.00;99.90
12872;DHT22;6504;53.766;9.626;2023-08-20T03:15:31;18.00;99.90
12872;DHT22;6504;53.766;9.626;2023-08-20T03:18:00;18.00;99.90
12872;DHT22;6504;53.766;9.626;2023-08-20T03:20:28;18.00;99.90
12872;DHT22;6504;53.766;9.626;2023-08-20T03:22:58;18.00;99.90
12872;DHT22;6504;53.766;9.626;2023-08-20T03:25:26;18.00;99.90
12872;DHT22;6504;53.766;9.626;2023-08-20T03:27:54;18.00;99.90
12872;DHT22;6504;53.766;9.626;2023-08-20T03:30:23;18.10;99.90
12872;DHT22;6504;53.766;9.626;2023-08-20T03:32:51;18.10;99.90
12872;DHT22;6504;53.766;9.626;2023-08-20T03:35:20;18.10;99.90
12872;DHT22;6504;53.766;9.626;2023-08-20T03:37:48;18.10;99.90
12872;DHT22;6504;53.766;9.626;2023-08-20T03:40:16;18.10;99.90
12872;DHT22;6504;53.766;9.626;2023-08-20T03:42:45;18.10;99.90
12872;DHT22;6504;53.766;9.626;2023-08-20T03:45:13;18.00;99.90
12872;DHT22;6504;53.766;9.626;2023-08-20T03:47:42;18.00;99.90
12872;DHT22;6504;53.766;9.626;2023-08-20T03:50:14;18.00;99.90
12872;DHT22;6504;53.766;9.626;2023-08-20T03:52:42;18.00;99.90
12872;DHT22;6504;53.766;9.626;2023-08-20T03:55:10;18.00;99.90
12872;DHT22;6504;53.766;9.626;2023-08-20T03:57:38;18.00;99.90
12872;DHT22;6504;53.766;9.626;2023-08-20T04:00:06;18.00;99.90
12872;DHT22;6504;53.766;9.626;2023-08-20T04:02:36;18.00;99.90
12872;DHT22;6504;53.766;9.626;2023-08-20T04:05:07;17.90;99.90
12872;DHT22;6504;53.766;9.626;2023-08-20T04:07:35;17.90;99.90
12872;DHT22;6504;53.766;9.626;2023-08-20T04:10:04;17.90;99.90
12872;DHT22;6504;53.766;9.626;2023-08-20T04:12:33;17.90;99.90
12872;DHT22;6504;53.766;9.626;2023-08-20T04:15:02;17.90;99.90
12872;DHT22;6504;53.766;9.626;2023-08-20T04:17:30;17.90;99.90
12872;DHT22;6504;53.766;9.626;2023-08-20T04:19:58;17.90;99.90
12872;DHT22;6504;53.766;9.626;2023-08-20T04:22:28;17.80;99.90
12872;DHT22;6504;53.766;9.626;2023-08-20T04:24:58;17.90;99.90
12872;DHT22;6504;53.766;9.626;2023-08-20T04:27:29;17.90;99.90
12872;DHT22;6504;53.766;9.626;2023-08-20T04:29:57;17.90;99.90
12872;DHT22;6504;53.766;9.626;2023-08-20T04:32:25;17.90;99.90
12872;DHT22;6504;53.766;9.626;2023-08-20T04:34:53;17.90;99.90
12872;DHT22;6504;53.766;9.626;2023-08-20T04:37:21;17.90;99.90
12872;DHT22;6504;53.766;9.626;2023-08-20T04:39:51;17.90;99.90
12872;DHT22;6504;53.766;9.626;2023-08-20T04:42:19;17.90;99.90
12872;DHT22;6504;53.766;9.626;2023-08-20T04:44:47;17.90;99.90
12872;DHT22;6504;53.766;9.626;2023-08-20T04:47:15;17.80;99.90
12872;DHT22;6504;53.766;9.626;2023-08-20T04:49:43;17.80;99.90
12872;DHT22;6504;53.766;9.626;2023-08-20T04:52:11;17.80;99.90
12872;DHT22;6504;53.766;9.626;2023-08-20T04:54:39;17.80;99.90
12872;DHT22;6504;53.766;9.626;2023-08-20T04:57:09;17.80;99.90
12872;DHT22;6504;53.766;9.626;2023-08-20T04:59:37;17.70;99.90
12872;DHT22;6504;53.766;9.626;2023-08-20T05:02:05;17.70;99.90
12872;DHT22;6504;53.766;9.626;2023-08-20T05:04:33;17.70;99.90
12872;DHT22;6504;53.766;9.626;2023-08-20T05:07:01;17.70;99.90
12872;DHT22;6504;53.766;9.626;2023-08-20T05:09:30;17.70;99.90
12872;DHT22;6504;53.766;9.626;2023-08-20T05:11:58;17.70;99.90
12872;DHT22;6504;53.766;9.626;2023-08-20T05:14:27;17.70;99.90
12872;DHT22;6504;53.766;9.626;2023-08-20T05:16:55;17.70;99.90
12872;DHT22;6504;53.766;9.626;2023-08-20T05:19:24;17.70;99.90
12872;DHT22;6504;53.766;9.626;2023-08-20T05:21:52;17.70;99.90
12872;DHT22;6504;53.766;9.626;2023-08-20T05:24:22;17.70;99.90
12872;DHT22;6504;53.766;9.626;2023-08-20T05:27:04;17.80;99.90
12872;DHT22;6504;53.766;9.626;2023-08-20T05:29:33;17.80;99.90
12872;DHT22;6504;53.766;9.626;2023-08-20T05:32:02;17.80;99.90
12872;DHT22;6504;53.766;9.626;2023-08-20T05:34:30;17.80;99.90
12872;DHT22;6504;53.766;9.626;2023-08-20T05:36:58;17.80;99.90
12872;DHT22;6504;53.766;9.626;2023-08-20T05:39:26;17.80;99.90
12872;DHT22;6504;53.766;9.626;2023-08-20T05:41:54;17.80;99.90
12872;DHT22;6504;53.766;9.626;2023-08-20T05:44:23;17.80;99.90
12872;DHT22;6504;53.766;9.626;2023-08-20T05:46:52;17.80;99.90
12872;DHT22;6504;53.766;9.626;2023-08-20T05:49:20;17.80;99.90
12872;DHT22;6504;53.766;9.626;2023-08-20T05:51:48;17.90;99.90
12872;DHT22;6504;53.766;9.626;2023-08-20T05:54:16;17.90;99.90
12872;DHT22;6504;53.766;9.626;2023-08-20T05:56:44;17.90;99.90
12872;DHT22;6504;53.766;9.626;2023-08-20T05:59:12;18.00;99.90
12872;DHT22;6504;53.766;9.626;2023-08-20T06:01:40;18.00;99.90
12872;DHT22;6504;53.766;9.626;2023-08-20T06:04:11;18.00;99.90
12872;DHT22;6504;53.766;9.626;2023-08-20T06:06:40;18.00;99.90
12872;DHT22;6504;53.766;9.626;2023-08-20T06:09:08;18.10;99.90
12872;DHT22;6504;53.766;9.626;2023-08-20T06:11:36;18.00;99.90
12872;DHT22;6504;53.766;9.626;2023-08-20T06:14:04;18.00;99.90
12872;DHT22;6504;53.766;9.626;2023-08-20T06:16:32;18.10;99.90
12872;DHT22;6504;53.766;9.626;2023-08-20T06:19:00;18.10;99.90
12872;DHT22;6504;53.766;9.626;2023-08-20T06:21:32;18.10;99.90
12872;DHT22;6504;53.766;9.626;2023-08-20T06:24:00;18.10;99.90
12872;DHT22;6504;53.766;9.626;2023-08-20T06:26:29;18.20;99.90
12872;DHT22;6504;53.766;9.626;2023-08-20T06:28:57;18.20;99.90
12872;DHT22;6504;53.766;9.626;2023-08-20T06:31:25;18.20;99.90
12872;DHT22;6504;53.766;9.626;2023-08-20T06:33:54;18.30;99.90
12872;DHT22;6504;53.766;9.626;2023-08-20T06:36:22;18.30;99.90
12872;DHT22;6504;53.766;9.626;2023-08-20T06:38:51;18.30;99.90
12872;DHT22;6504;53.766;9.626;2023-08-20T06:41:19;18.30;99.90
12872;DHT22;6504;53.766;9.626;2023-08-20T06:43:47;18.30;99.90
12872;DHT22;6504;53.766;9.626;2023-08-20T06:46:15;18.40;99.90
12872;DHT22;6504;53.766;9.626;2023-08-20T06:48:43;18.40;99.90
12872;DHT22;6504;53.766;9.626;2023-08-20T06:51:12;18.40;99.90
12872;DHT22;6504;53.766;9.626;2023-08-20T06:53:40;18.40;99.90
12872;DHT22;6504;53.766;9.626;2023-08-20T06:56:10;18.50;99.90
12872;DHT22;6504;53.766;9.626;2023-08-20T06:58:40;18.50;99.90
12872;DHT22;6504;53.766;9.626;2023-08-20T07:01:08;18.40;99.90
12872;DHT22;6504;53.766;9.626;2023-08-20T07:03:38;18.50;99.90
12872;DHT22;6504;53.766;9.626;2023-08-20T07:06:07;18.50;99.90
12872;DHT22;6504;53.766;9.626;2023-08-20T07:08:35;18.50;99.90
12872;DHT22;6504;53.766;9.626;2023-08-20T07:11:05;18.50;99.90
12872;DHT22;6504;53.766;9.626;2023-08-20T07:13:36;18.50;99.90
12872;DHT22;6504;53.766;9.626;2023-08-20T07:16:04;18.50;99.90
12872;DHT22;6504;53.766;9.626;2023-08-20T07:18:32;18.50;99.90
12872;DHT22;6504;53.766;9.626;2023-08-20T07:21:00;18.60;99.90
12872;DHT22;6504;53.766;9.626;2023-08-20T07:23:29;18.60;99.90
12872;DHT22;6504;53.766;9.626;2023-08-20T07:26:05;18.60;99.90
12872;DHT22;6504;53.766;9.626;2023-08-20T07:28:33;18.60;99.90
12872;DHT22;6504;53.766;9.626;2023-08-20T07:31:20;18.60;99.90
12872;DHT22;6504;53.766;9.626;2023-08-20T07:33:49;18.70;99.90
12872;DHT22;6504;53.766;9.626;2023-08-20T07:36:18;18.70;99.90
12872;DHT22;6504;53.766;9.626;2023-08-20T07:38:49;18.80;99.90
12872;DHT22;6504;53.766;9.626;2023-08-20T07:41:18;18.80;99.90
12872;DHT22;6504;53.766;9.626;2023-08-20T07:43:47;18.90;99.90
12872;DHT22;6504;53.766;9.626;2023-08-20T07:46:16;18.90;99.90
12872;DHT22;6504;53.766;9.626;2023-08-20T07:48:45;19.00;99.90
12872;DHT22;6504;53.766;9.626;2023-08-20T07:51:13;19.10;99.90
12872;DHT22;6504;53.766;9.626;2023-08-20T07:53:41;19.20;99.90
12872;DHT22;6504;53.766;9.626;2023-08-20T07:56:09;19.20;99.90
12872;DHT22;6504;53.766;9.626;2023-08-20T07:58:37;19.20;99.90
12872;DHT22;6504;53.766;9.626;2023-08-20T08:01:05;19.20;99.90
12872;DHT22;6504;53.766;9.626;2023-08-20T08:03:34;19.30;99.90
12872;DHT22;6504;53.766;9.626;2023-08-20T08:06:04;19.30;99.90
12872;DHT22;6504;53.766;9.626;2023-08-20T08:08:32;19.40;99.90
12872;DHT22;6504;53.766;9.626;2023-08-20T08:11:00;19.40;99.90
12872;DHT22;6504;53.766;9.626;2023-08-20T08:13:28;19.40;99.90
12872;DHT22;6504;53.766;9.626;2023-08-20T08:15:56;19.40;99.90
12872;DHT22;6504;53.766;9.626;2023-08-20T08:18:24;19.40;99.90
12872;DHT22;6504;53.766;9.626;2023-08-20T08:20:52;19.50;99.90
12872;DHT22;6504;53.766;9.626;2023-08-20T08:23:22;19.60;99.90
12872;DHT22;6504;53.766;9.626;2023-08-20T08:25:50;19.70;99.90
12872;DHT22;6504;53.766;9.626;2023-08-20T08:28:18;19.70;99.90
12872;DHT22;6504;53.766;9.626;2023-08-20T08:30:46;19.80;99.90
12872;DHT22;6504;53.766;9.626;2023-08-20T08:33:14;19.90;99.90
12872;DHT22;6504;53.766;9.626;2023-08-20T08:35:42;19.90;99.90
12872;DHT22;6504;53.766;9.626;2023-08-20T08:38:10;20.00;99.90
12872;DHT22;6504;53.766;9.626;2023-08-20T08:40:41;20.20;99.90
12872;DHT22;6504;53.766;9.626;2023-08-20T08:43:10;20.30;99.90
12872;DHT22;6504;53.766;9.626;2023-08-20T08:45:46;20.40;99.90
12872;DHT22;6504;53.766;9.626;2023-08-20T08:48:15;20.50;99.90
12872;DHT22;6504;53.766;9.626;2023-08-20T08:50:43;20.60;99.90
12872;DHT22;6504;53.766;9.626;2023-08-20T08:53:13;20.70;99.90
12872;DHT22;6504;53.766;9.626;2023-08-20T08:55:42;20.80;99.90
12872;DHT22;6504;53.766;9.626;2023-08-20T08:58:10;20.90;99.90
12872;DHT22;6504;53.766;9.626;2023-08-20T09:00:38;21.00;99.90
12872;DHT22;6504;53.766;9.626;2023-08-20T09:03:08;21.10;99.90
12872;DHT22;6504;53.766;9.626;2023-08-20T09:05:46;21.20;99.90
12872;DHT22;6504;53.766;9.626;2023-08-20T09:08:19;21.40;99.90
12872;DHT22;6504;53.766;9.626;2023-08-20T09:10:51;21.50;99.90
12872;DHT22;6504;53.766;9.626;2023-08-20T09:13:22;21.60;99.90
12872;DHT22;6504;53.766;9.626;2023-08-20T09:15:52;21.70;99.90
12872;DHT22;6504;53.766;9.626;2023-08-20T09:18:20;21.80;99.90
12872;DHT22;6504;53.766;9.626;2023-08-20T09:20:49;21.90;99.90
12872;DHT22;6504;53.766;9.626;2023-08-20T09:23:17;22.00;99.90
12872;DHT22;6504;53.766;9.626;2023-08-20T09:25:45;22.10;99.90
12872;DHT22;6504;53.766;9.626;2023-08-20T09:28:15;22.20;99.90
12872;DHT22;6504;53.766;9.626;2023-08-20T09:30:55;22.40;99.90
12872;DHT22;6504;53.766;9.626;2023-08-20T09:33:23;22.50;99.90
12872;DHT22;6504;53.766;9.626;2023-08-20T09:35:52;22.60;99.90
12872;DHT22;6504;53.766;9.626;2023-08-20T09:38:22;22.70;99.90
12872;DHT22;6504;53.766;9.626;2023-08-20T09:40:51;22.80;99.90
12872;DHT22;6504;53.766;9.626;2023-08-20T09:43:23;22.80;99.90
12872;DHT22;6504;53.766;9.626;2023-08-20T09:45:54;23.00;99.90
12872;DHT22;6504;53.766;9.626;2023-08-20T09:48:24;23.20;99.90
12872;DHT22;6504;53.766;9.626;2023-08-20T09:50:59;23.30;99.90
12872;DHT22;6504;53.766;9.626;2023-08-20T09:53:34;23.40;99.90
12872;DHT22;6504;53.766;9.626;2023-08-20T09:56:09;23.50;99.90
12872;DHT22;6504;53.766;9.626;2023-08-20T09:58:39;23.60;99.90
12872;DHT22;6504;53.766;9.626;2023-08-20T10:01:08;23.70;99.90
12872;DHT22;6504;53.766;9.626;2023-08-20T10:03:37;23.80;99.90
12872;DHT22;6504;53.766;9.626;2023-08-20T10:06:06;23.90;99.90
12872;DHT22;6504;53.766;9.626;2023-08-20T10:08:34;24.00;99.90
12872;DHT22;6504;53.766;9.626;2023-08-20T10:11:03;24.10;99.90
12872;DHT22;6504;53.766;9.626;2023-08-20T10:13:31;24.20;99.90
12872;DHT22;6504;53.766;9.626;2023-08-20T10:16:01;24.40;99.90
12872;DHT22;6504;53.766;9.626;2023-08-20T10:18:29;24.40;99.90
12872;DHT22;6504;53.766;9.626;2023-08-20T10:20:58;24.50;99.90
12872;DHT22;6504;53.766;9.626;2023-08-20T10:23:30;24.60;99.90
12872;DHT22;6504;53.766;9.626;2023-08-20T10:26:08;24.70;99.90
12872;DHT22;6504;53.766;9.626;2023-08-20T10:28:37;24.80;99.90
12872;DHT22;6504;53.766;9.626;2023-08-20T10:31:08;24.90;99.90
12872;DHT22;6504;53.766;9.626;2023-08-20T10:33:47;24.90;99.90
12872;DHT22;6504;53.766;9.626;2023-08-20T10:36:17;25.00;99.90
12872;DHT22;6504;53.766;9.626;2023-08-20T10:38:50;25.10;99.90
12872;DHT22;6504;53.766;9.626;2023-08-20T10:41:24;25.20;99.90
12872;DHT22;6504;53.766;9.626;2023-08-20T10:43:53;25.30;99.90
12872;DHT22;6504;53.766;9.626;2023-08-20T10:46:23;25.40;99.90
12872;DHT22;6504;53.766;9.626;2023-08-20T10:48:53;25.50;99.90
12872;DHT22;6504;53.766;9.626;2023-08-20T10:51:26;25.60;99.90
12872;DHT22;6504;53.766;9.626;2023-08-20T10:54:05;25.60;99.90
12872;DHT22;6504;53.766;9.626;2023-08-20T10:56:42;25.80;99.90
12872;DHT22;6504;53.766;9.626;2023-08-20T10:59:14;25.80;99.90
12872;DHT22;6504;53.766;9.626;2023-08-20T11:01:45;25.90;99.90
12872;DHT22;6504;53.766;9.626;2023-08-20T11:04:15;26.00;99.90
12872;DHT22;6504;53.766;9.626;2023-08-20T11:06:44;26.00;99.90
12872;DHT22;6504;53.766;9.626;2023-08-20T11:09:13;26.10;99.90
12872;DHT22;6504;53.766;9.626;2023-08-20T11:11:42;26.10;99.90
12872;DHT22;6504;53.766;9.626;2023-08-20T11:14:13;26.10;99.90
12872;DHT22;6504;53.766;9.626;2023-08-20T11:16:42;26.20;99.90
12872;DHT22;6504;53.766;9.626;2023-08-20T11:19:13;26.30;99.90
12872;DHT22;6504;53.766;9.626;2023-08-20T11:21:42;26.40;99.90
12872;DHT22;6504;53.766;9.626;2023-08-20T11:24:10;26.40;99.90
12872;DHT22;6504;53.766;9.626;2023-08-20T11:26:40;26.40;99.90
12872;DHT22;6504;53.766;9.626;2023-08-20T11:29:09;26.40;99.90
12872;DHT22;6504;53.766;9.626;2023-08-20T11:31:39;26.50;99.90
12872;DHT22;6504;53.766;9.626;2023-08-20T11:34:07;26.60;99.90
12872;DHT22;6504;53.766;9.626;2023-08-20T11:36:38;26.60;99.90
12872;DHT22;6504;53.766;9.626;2023-08-20T11:39:07;26.70;99.90
12872;DHT22;6504;53.766;9.626;2023-08-20T11:41:36;26.80;99.90
12872;DHT22;6504;53.766;9.626;2023-08-20T11:44:04;26.90;99.90
12872;DHT22;6504;53.766;9.626;2023-08-20T11:46:33;27.00;99.90
12872;DHT22;6504;53.766;9.626;2023-08-20T11:49:02;27.00;99.90
12872;DHT22;6504;53.766;9.626;2023-08-20T11:51:36;27.10;99.90
12872;DHT22;6504;53.766;9.626;2023-08-20T11:54:05;27.10;99.90
12872;DHT22;6504;53.766;9.626;2023-08-20T11:56:34;27.00;99.90
12872;DHT22;6504;53.766;9.626;2023-08-20T11:59:05;27.10;99.90
12872;DHT22;6504;53.766;9.626;2023-08-20T12:01:38;27.20;99.90
12872;DHT22;6504;53.766;9.626;2023-08-20T12:04:08;27.30;99.90
12872;DHT22;6504;53.766;9.626;2023-08-20T12:06:38;27.30;99.90
12872;DHT22;6504;53.766;9.626;2023-08-20T12:09:19;27.40;99.90
12872;DHT22;6504;53.766;9.626;2023-08-20T12:11:51;27.60;99.90
12872;DHT22;6504;53.766;9.626;2023-08-20T12:14:23;27.60;99.90
12872;DHT22;6504;53.766;9.626;2023-08-20T12:16:53;27.60;99.90
12872;DHT22;6504;53.766;9.626;2023-08-20T12:19:21;27.60;99.90
12872;DHT22;6504;53.766;9.626;2023-08-20T12:21:51;27.60;99.90
12872;DHT22;6504;53.766;9.626;2023-08-20T12:24:19;27.60;99.90
12872;DHT22;6504;53.766;9.626;2023-08-20T12:26:47;27.70;99.90
12872;DHT22;6504;53.766;9.626;2023-08-20T12:29:16;27.80;99.90
12872;DHT22;6504;53.766;9.626;2023-08-20T12:31:44;27.90;99.90
12872;DHT22;6504;53.766;9.626;2023-08-20T12:34:12;27.90;99.90
12872;DHT22;6504;53.766;9.626;2023-08-20T12:36:41;27.80;99.90
12872;DHT22;6504;53.766;9.626;2023-08-20T12:39:10;27.80;99.90
12872;DHT22;6504;53.766;9.626;2023-08-20T12:41:38;27.90;99.90
12872;DHT22;6504;53.766;9.626;2023-08-20T12:44:06;27.80;99.90
12872;DHT22;6504;53.766;9.626;2023-08-20T12:46:34;27.80;99.90
12872;DHT22;6504;53.766;9.626;2023-08-20T12:49:02;27.70;99.90
12872;DHT22;6504;53.766;9.626;2023-08-20T12:51:30;27.70;99.90
12872;DHT22;6504;53.766;9.626;2023-08-20T12:53:58;27.60;99.90
12872;DHT22;6504;53.766;9.626;2023-08-20T12:56:29;27.60;99.90
12872;DHT22;6504;53.766;9.626;2023-08-20T12:58:57;27.70;99.90
12872;DHT22;6504;53.766;9.626;2023-08-20T13:01:25;27.60;99.90
12872;DHT22;6504;53.766;9.626;2023-08-20T13:03:53;27.60;99.90
12872;DHT22;6504;53.766;9.626;2023-08-20T13:06:22;27.60;99.90
12872;DHT22;6504;53.766;9.626;2023-08-20T13:08:51;27.60;99.90
12872;DHT22;6504;53.766;9.626;2023-08-20T13:11:20;27.70;99.90
12872;DHT22;6504;53.766;9.626;2023-08-20T13:13:51;27.70;99.90
12872;DHT22;6504;53.766;9.626;2023-08-20T13:16:19;27.80;99.90
12872;DHT22;6504;53.766;9.626;2023-08-20T13:18:48;27.70;99.90
12872;DHT22;6504;53.766;9.626;2023-08-20T13:21:16;27.70;99.90
12872;DHT22;6504;53.766;9.626;2023-08-20T13:23:44;27.70;99.90
12872;DHT22;6504;53.766;9.626;2023-08-20T13:26:12;27.70;99.90
12872;DHT22;6504;53.766;9.626;2023-08-20T13:28:41;27.70;99.90
12872;DHT22;6504;53.766;9.626;2023-08-20T13:31:10;27.80;99.90
12872;DHT22;6504;53.766;9.626;2023-08-20T13:33:38;27.90;99.90
12872;DHT22;6504;53.766;9.626;2023-08-20T13:36:07;27.90;99.90
12872;DHT22;6504;53.766;9.626;2023-08-20T13:38:35;27.90;99.90
12872;DHT22;6504;53.766;9.626;2023-08-20T13:41:03;27.90;99.90
12872;DHT22;6504;53.766;9.626;2023-08-20T13:43:31;27.90;99.90
12872;DHT22;6504;53.766;9.626;2023-08-20T13:45:59;27.90;99.90
12872;DHT22;6504;53.766;9.626;2023-08-20T13:48:29;28.00;99.90
12872;DHT22;6504;53.766;9.626;2023-08-20T13:50:57;28.00;99.90
12872;DHT22;6504;53.766;9.626;2023-08-20T13:53:25;28.00;99.90
12872;DHT22;6504;53.766;9.626;2023-08-20T13:55:53;27.90;99.90
12872;DHT22;6504;53.766;9.626;2023-08-20T13:58:22;27.90;99.90
12872;DHT22;6504;53.766;9.626;2023-08-20T14:00:50;27.90;99.90
12872;DHT22;6504;53.766;9.626;2023-08-20T14:03:18;28.00;99.90
12872;DHT22;6504;53.766;9.626;2023-08-20T14:05:47;28.00;99.90
12872;DHT22;6504;53.766;9.626;2023-08-20T14:08:15;28.00;99.90
12872;DHT22;6504;53.766;9.626;2023-08-20T14:10:43;28.10;99.90
12872;DHT22;6504;53.766;9.626;2023-08-20T14:13:11;28.10;99.90
12872;DHT22;6504;53.766;9.626;2023-08-20T14:15:39;28.00;99.90
12872;DHT22;6504;53.766;9.626;2023-08-20T14:18:08;27.90;99.90
12872;DHT22;6504;53.766;9.626;2023-08-20T14:20:36;27.70;99.90
12872;DHT22;6504;53.766;9.626;2023-08-20T14:23:05;27.70;99.90
12872;DHT22;6504;53.766;9.626;2023-08-20T14:25:33;27.70;99.90
12872;DHT22;6504;53.766;9.626;2023-08-20T14:28:02;27.80;99.90
12872;DHT22;6504;53.766;9.626;2023-08-20T14:30:30;27.90;99.90
12872;DHT22;6504;53.766;9.626;2023-08-20T14:32:58;28.00;99.90
12872;DHT22;6504;53.766;9.626;2023-08-20T14:35:26;27.90;99.90
12872;DHT22;6504;53.766;9.626;2023-08-20T14:37:54;28.00;99.90
12872;DHT22;6504;53.766;9.626;2023-08-20T14:40:23;27.90;99.90
12872;DHT22;6504;53.766;9.626;2023-08-20T14:42:51;27.90;99.90
12872;DHT22;6504;53.766;9.626;2023-08-20T14:45:19;27.90;99.90
12872;DHT22;6504;53.766;9.626;2023-08-20T14:47:47;27.80;99.90
12872;DHT22;6504;53.766;9.626;2023-08-20T14:50:16;27.80;99.90
12872;DHT22;6504;53.766;9.626;2023-08-20T14:52:44;27.90;99.90
12872;DHT22;6504;53.766;9.626;2023-08-20T14:55:14;27.90;99.90
12872;DHT22;6504;53.766;9.626;2023-08-20T14:57:44;27.90;99.90
12872;DHT22;6504;53.766;9.626;2023-08-20T15:00:18;28.00;99.90
12872;DHT22;6504;53.766;9.626;2023-08-20T15:02:47;28.00;99.90
12872;DHT22;6504;53.766;9.626;2023-08-20T15:05:16;28.10;99.90
12872;DHT22;6504;53.766;9.626;2023-08-20T15:07:44;28.00;99.90
12872;DHT22;6504;53.766;9.626;2023-08-20T15:10:12;28.00;99.90
12872;DHT22;6504;53.766;9.626;2023-08-20T15:12:41;28.00;99.90
12872;DHT22;6504;53.766;9.626;2023-08-20T15:15:10;27.80;99.90
12872;DHT22;6504;53.766;9.626;2023-08-20T15:17:38;27.80;99.90
12872;DHT22;6504;53.766;9.626;2023-08-20T15:20:07;27.80;99.90
12872;DHT22;6504;53.766;9.626;2023-08-20T15:22:38;27.80;99.90
12872;DHT22;6504;53.766;9.626;2023-08-20T15:25:07;27.80;99.90
12872;DHT22;6504;53.766;9.626;2023-08-20T15:27:37;27.80;99.90
12872;DHT22;6504;53.766;9.626;2023-08-20T15:30:06;27.80;99.90
12872;DHT22;6504;53.766;9.626;2023-08-20T15:32:36;27.80;99.90
12872;DHT22;6504;53.766;9.626;2023-08-20T15:35:06;27.80;99.90
12872;DHT22;6504;53.766;9.626;2023-08-20T15:37:34;27.70;99.90
12872;DHT22;6504;53.766;9.626;2023-08-20T15:40:04;27.70;99.90
12872;DHT22;6504;53.766;9.626;2023-08-20T15:42:35;27.70;99.90
12872;DHT22;6504;53.766;9.626;2023-08-20T15:45:04;27.60;99.90
12872;DHT22;6504;53.766;9.626;2023-08-20T15:47:32;27.60;99.90
12872;DHT22;6504;53.766;9.626;2023-08-20T15:50:03;27.50;99.90
12872;DHT22;6504;53.766;9.626;2023-08-20T15:52:31;27.50;99.90
12872;DHT22;6504;53.766;9.626;2023-08-20T15:54:59;27.40;99.90
12872;DHT22;6504;53.766;9.626;2023-08-20T15:57:27;27.40;99.90